Time;durP1;ratioP1;P1;durP2;ratioP2;P2;SDS_P1;SDS_P2;PMS_P1;PMS_P2;Temp;Humidity;BMP_temperature;BMP_pressure;BME280_temperature;BME280_humidity;BME280_pressure;Samples;Min_cycle;Max_cycle;Signal;HPM_P1;HPM_P2
2021/11/10 00:01:32;;;;;;;8.88;6.85;;;;;;;3.10;86.69;97957.10;1797927;80;21082;-81
2021/11/10 00:03:58;;;;;;;5.22;4.45;;;;;;;3.14;86.54;97954.23;1798000;80;20995;-81
2021/11/10 00:06:24;;;;;;;31.97;12.40;;;;;;;3.20;86.55;97951.72;1798021;80;21002;-81
2021/11/10 00:08:49;;;;;;;63.40;21.07;;;;;;;3.27;86.33;97961.99;1797906;80;20986;-81
2021/11/10 00:11:16;;;;;;;47.90;17.20;;;;;;;3.33;86.20;97958.20;1797968;80;20982;-81
2021/11/10 00:13:41;;;;;;;27.67;9.88;;;;;;;3.33;86.04;97966.73;1797964;80;21014;-81
2021/11/10 00:16:07;;;;;;;3.52;2.20;;;;;;;3.36;85.63;97952.86;1813453;79;20939;-81
2021/11/10 00:18:33;;;;;;;2.70;1.90;;;;;;;3.38;85.43;97954.41;1798111;80;20982;-81
2021/11/10 00:20:59;;;;;;;2.22;1.72;;;;;;;3.45;85.37;97944.56;1797847;80;20970;-81
2021/11/10 00:23:24;;;;;;;2.37;1.70;;;;;;;3.52;85.33;97936.81;1797977;80;21011;-81
2021/11/10 00:25:50;;;;;;;2.60;1.80;;;;;;;3.67;85.13;97940.95;1797962;80;21021;-81
2021/11/10 00:28:16;;;;;;;3.58;2.52;;;;;;;3.79;84.86;97938.05;1798091;80;20987;-81
2021/11/10 00:30:41;;;;;;;1.67;1.45;;;;;;;3.86;84.48;97943.95;1797914;80;20944;-81
2021/11/10 00:33:07;;;;;;;1.62;1.45;;;;;;;3.93;84.54;97935.84;1771521;80;20979;-81
2021/11/10 00:35:33;;;;;;;3.10;1.72;;;;;;;3.94;84.29;97938.31;1797997;80;21026;-81
2021/11/10 00:37:59;;;;;;;2.00;1.40;;;;;;;3.98;83.45;97942.78;1797712;80;21065;-81
2021/11/10 00:40:25;;;;;;;2.42;1.75;;;;;;;4.04;83.43;97941.08;1797937;80;21386;-81
2021/11/10 00:42:51;;;;;;;2.00;1.60;;;;;;;4.14;83.88;97939.08;1798025;80;21110;-81
2021/11/10 00:45:17;;;;;;;1.52;1.37;;;;;;;4.19;83.90;97937.47;1797923;80;20955;-81
2021/11/10 00:47:42;;;;;;;2.58;1.80;;;;;;;4.22;83.43;97941.94;1798012;80;21397;-81
2021/11/10 00:50:09;;;;;;;2.80;1.77;;;;;;;4.26;82.59;97948.19;1797990;80;21050;-81
2021/11/10 00:52:34;;;;;;;2.80;2.42;;;;;;;4.32;82.98;97941.33;1797829;80;21325;-81
2021/11/10 00:55:00;;;;;;;5.87;5.05;;;;;;;4.33;82.86;97948.13;1797865;80;20998;-81
2021/11/10 00:57:26;;;;;;;7.62;3.22;;;;;;;4.31;82.27;97942.26;1795164;80;21054;-81
2021/11/10 00:59:52;;;;;;;2.85;2.22;;;;;;;4.37;82.54;97940.54;1795305;80;21026;-81
2021/11/10 01:02:17;;;;;;;6.10;2.90;;;;;;;4.40;81.75;97942.47;1795306;80;21031;-81
2021/11/10 01:04:43;;;;;;;2.83;2.12;;;;;;;4.51;81.61;97941.70;1795170;80;20919;-81
2021/11/10 01:07:09;;;;;;;5.03;2.75;;;;;;;4.56;81.53;97944.81;1795162;80;21006;-81
2021/11/10 01:09:40;;;;;;;4.50;3.05;;;;;;;4.58;81.59;97939.09;1795096;80;20951;-81
2021/11/10 01:12:08;;;;;;;4.50;3.12;;;;;;;4.56;81.23;97942.70;1795488;79;21074;-81
2021/11/10 01:14:34;;;;;;;5.22;3.02;;;;;;;4.53;81.04;97932.12;1794532;80;21019;-81
2021/11/10 01:17:00;;;;;;;3.02;2.22;;;;;;;4.56;81.03;97931.94;1795097;80;20963;-81
2021/11/10 01:19:27;;;;;;;2.95;2.60;;;;;;;4.59;80.95;97925.28;1794890;80;21063;-81
2021/11/10 01:21:52;;;;;;;15.60;6.90;;;;;;;4.55;80.92;97919.96;1795043;80;20994;-81
2021/11/10 01:24:18;;;;;;;2.40;2.20;;;;;;;4.53;80.79;97922.65;1810593;79;21373;-81
2021/11/10 01:26:44;;;;;;;3.65;2.15;;;;;;;4.48;81.09;97922.63;1795063;80;21019;-81
2021/11/10 01:29:10;;;;;;;4.12;2.33;;;;;;;4.43;81.08;97922.13;1795433;80;20960;-81
2021/11/10 01:31:36;;;;;;;3.37;3.00;;;;;;;4.35;80.88;97917.95;1795214;80;21302;-81
2021/11/10 01:34:07;;;;;;;3.12;2.80;;;;;;;4.34;80.95;97918.88;1795176;80;20944;-81
2021/11/10 01:36:30;;;;;;;3.70;2.58;;;;;;;4.30;81.09;97913.13;1795693;79;21023;-81
2021/11/10 01:38:55;;;;;;;2.15;1.95;;;;;;;4.30;81.21;97913.13;1795119;80;20967;-81
2021/11/10 01:41:21;;;;;;;3.20;2.20;;;;;;;4.31;80.83;97919.92;1795222;80;21042;-81
2021/11/10 01:43:49;;;;;;;4.42;2.60;;;;;;;4.34;81.10;97912.45;1795278;80;20916;-81
2021/11/10 01:46:15;;;;;;;2.60;2.40;;;;;;;4.33;80.75;97915.48;1795218;80;20955;-81
2021/11/10 01:48:41;;;;;;;3.42;2.87;;;;;;;4.33;80.20;97913.37;1795247;80;21334;-81
2021/11/10 01:51:07;;;;;;;4.03;2.67;;;;;;;4.34;80.10;97913.27;1795314;80;20991;-81
2021/11/10 01:53:34;;;;;;;4.33;3.60;;;;;;;4.34;80.05;97913.73;1795264;80;21393;-81
2021/11/10 01:56:01;;;;;;;4.08;3.12;;;;;;;4.36;79.23;97920.42;1795480;80;20952;-81
2021/11/10 01:58:28;;;;;;;4.80;2.65;;;;;;;4.48;79.43;97917.47;1813720;79;21413;-80
2021/11/10 02:00:54;;;;;;;3.35;2.22;;;;;;;4.60;79.84;97909.37;1798280;80;20994;-81
2021/11/10 02:03:20;;;;;;;4.33;2.60;;;;;;;4.63;79.34;97913.02;1798076;80;21026;-81
2021/11/10 02:05:46;;;;;;;4.33;3.42;;;;;;;4.66;77.79;97917.48;1798213;80;21302;-81
2021/11/10 02:08:12;;;;;;;4.30;3.65;;;;;;;4.78;78.74;97925.64;1798312;80;20975;-81
2021/11/10 02:10:37;;;;;;;5.05;2.98;;;;;;;4.81;78.45;97918.16;1798210;80;21019;-81
2021/11/10 02:13:05;;;;;;;3.83;2.85;;;;;;;4.82;78.55;97920.62;1798209;80;21009;-81
2021/11/10 02:15:31;;;;;;;4.85;3.42;;;;;;;4.81;78.42;97916.40;1798134;80;20990;-81
2021/11/10 02:17:59;;;;;;;2.90;2.60;;;;;;;4.81;78.65;97907.38;1798383;80;21014;-81
2021/11/10 02:20:29;;;;;;;3.58;2.62;;;;;;;4.82;78.56;97906.45;1798212;80;20936;-81
2021/11/10 02:22:55;;;;;;;6.65;4.20;;;;;;;4.82;78.72;97893.58;1798375;80;21010;-81
2021/11/10 02:25:20;;;;;;;4.40;3.00;;;;;;;4.77;78.28;97894.38;1798267;80;21313;-81
2021/11/10 02:27:46;;;;;;;2.83;2.50;;;;;;;4.75;78.04;97892.38;1798039;80;21018;-81
2021/11/10 02:30:16;;;;;;;4.40;2.80;;;;;;;4.71;77.60;97878.05;1798342;80;20947;-81
2021/11/10 02:32:51;;;;;;;4.45;2.70;;;;;;;4.72;77.76;97873.29;1798115;80;20923;-81
2021/11/10 02:35:20;;;;;;;3.95;3.30;;;;;;;4.74;77.31;97866.74;1798248;80;21007;-81
2021/11/10 02:37:50;;;;;;;3.05;2.77;;;;;;;4.83;76.80;97880.23;1798265;80;20963;-81
2021/11/10 02:40:16;;;;;;;10.43;9.17;;;;;;;4.91;77.02;97877.95;1798487;80;21413;-81
2021/11/10 02:42:43;;;;;;;9.43;5.75;;;;;;;4.95;76.22;97874.21;1797826;80;21110;-81
2021/11/10 02:45:09;;;;;;;5.60;3.60;;;;;;;4.99;76.60;97867.08;1798225;80;21054;-81
2021/11/10 02:47:35;;;;;;;3.42;2.65;;;;;;;4.96;75.98;97862.16;1798118;80;20967;-81
2021/11/10 02:50:01;;;;;;;5.00;2.95;;;;;;;4.99;75.65;97867.08;1798250;80;20994;-81
2021/11/10 02:52:27;;;;;;;5.83;3.65;;;;;;;5.06;75.80;97865.72;1798087;80;20978;-81
2021/11/10 02:54:54;;;;;;;5.62;4.15;;;;;;;5.06;75.74;97869.13;1798225;80;20954;-81
2021/11/10 02:57:21;;;;;;;3.27;2.92;;;;;;;5.04;75.42;97866.27;1797901;80;21065;-81
2021/11/10 02:59:47;;;;;;;3.58;3.25;;;;;;;5.01;75.58;97866.50;1797847;80;21014;-81
2021/11/10 03:02:13;;;;;;;4.65;3.02;;;;;;;5.03;74.99;97857.72;1797865;80;21472;-81
2021/11/10 03:04:44;;;;;;;3.05;2.75;;;;;;;5.08;74.81;97856.12;1798121;80;21081;-81
2021/11/10 03:07:11;;;;;;;4.20;2.97;;;;;;;5.13;75.54;97848.87;1798241;80;21477;-81
2021/11/10 03:09:37;;;;;;;4.80;3.87;;;;;;;5.12;74.58;97846.77;1798104;80;21371;-81
2021/11/10 03:12:05;;;;;;;4.45;3.15;;;;;;;5.19;74.70;97843.26;1798062;80;21318;-81
2021/11/10 03:14:32;;;;;;;4.37;3.45;;;;;;;5.24;73.60;97827.48;1798238;80;20987;-81
2021/11/10 03:16:58;;;;;;;4.28;3.45;;;;;;;5.32;73.80;97820.81;1798001;80;21029;-81
2021/11/10 03:19:24;;;;;;;5.90;3.47;;;;;;;5.36;73.54;97818.35;1798018;80;20978;-81
2021/11/10 03:21:50;;;;;;;4.30;3.10;;;;;;;5.40;73.81;97819.79;1798073;80;22366;-81
2021/11/10 03:24:16;;;;;;;5.33;3.10;;;;;;;5.42;73.76;97815.34;1797999;80;21011;-81
2021/11/10 03:26:43;;;;;;;4.62;3.30;;;;;;;5.46;73.92;97800.45;1798037;80;21153;-81
2021/11/10 03:29:08;;;;;;;3.85;3.17;;;;;;;5.42;73.62;97796.00;1798110;80;20990;-81
2021/11/10 03:31:36;;;;;;;4.10;2.92;;;;;;;5.36;73.15;97790.00;1798012;80;21016;-81
2021/11/10 03:34:02;;;;;;;3.65;2.90;;;;;;;5.36;72.49;97782.27;1813422;79;20939;-81
2021/11/10 03:36:28;;;;;;;4.03;3.40;;;;;;;5.38;73.55;97793.31;1813696;79;21070;-81
2021/11/10 03:38:55;;;;;;;4.58;3.47;;;;;;;5.36;73.09;97797.73;1797827;80;21049;-81
2021/11/10 03:41:21;;;;;;;6.20;4.00;;;;;;;5.33;73.08;97798.44;1798138;80;21117;-81
2021/11/10 03:43:47;;;;;;;3.12;2.83;;;;;;;5.30;73.19;97802.06;1798122;80;20951;-81
2021/11/10 03:46:13;;;;;;;7.90;5.28;;;;;;;5.27;72.74;97797.61;1798001;80;21031;-81
2021/11/10 03:48:40;;;;;;;6.70;3.75;;;;;;;5.28;72.86;97800.55;1798086;80;20990;-81
2021/11/10 03:51:06;;;;;;;5.90;3.72;;;;;;;5.23;73.43;97799.60;1787223;79;20971;-81
2021/11/10 03:53:33;;;;;;;4.12;3.65;;;;;;;5.20;72.87;97795.94;1798172;80;20956;-81
2021/11/10 03:55:59;;;;;;;4.83;3.52;;;;;;;5.16;73.06;97801.44;1797981;80;20998;-81
2021/11/10 03:58:24;;;;;;;3.75;3.40;;;;;;;5.12;73.44;97806.00;1797750;80;21030;-81
2021/11/10 04:00:50;;;;;;;4.10;3.55;;;;;;;5.08;72.33;97813.61;1798199;80;20999;-81
2021/11/10 04:03:16;;;;;;;5.40;4.40;;;;;;;5.16;72.72;97807.41;1798021;80;21314;-81
2021/11/10 04:05:42;;;;;;;4.65;3.50;;;;;;;5.18;73.35;97803.44;1797962;80;20995;-81
2021/11/10 04:08:10;;;;;;;4.72;3.27;;;;;;;5.11;73.03;97798.74;1797928;80;21300;-81
2021/11/10 04:10:37;;;;;;;4.08;3.08;;;;;;;5.04;73.11;97806.58;1797931;80;21025;-81
2021/11/10 04:13:05;;;;;;;3.87;2.75;;;;;;;4.97;72.80;97812.28;1797950;80;20951;-81
2021/11/10 04:15:31;;;;;;;3.58;2.92;;;;;;;4.94;73.18;97808.64;1797883;80;20962;-81
2021/11/10 04:17:56;;;;;;;4.45;3.00;;;;;;;4.92;73.08;97814.37;1797978;80;21018;-81
2021/11/10 04:20:22;;;;;;;4.03;3.60;;;;;;;4.96;72.82;97812.75;1797920;80;20951;-81
2021/11/10 04:22:49;;;;;;;3.37;3.08;;;;;;;5.09;72.43;97808.34;1798165;80;21378;-81
2021/11/10 04:25:14;;;;;;;3.83;2.70;;;;;;;5.20;72.20;97801.56;1797928;80;21002;-81
2021/11/10 04:27:40;;;;;;;5.03;3.58;;;;;;;5.27;71.81;97812.61;1797991;80;21003;-81
2021/11/10 04:30:07;;;;;;;4.50;3.05;;;;;;;5.33;71.94;97812.14;1798209;80;20947;-81
2021/11/10 04:32:33;;;;;;;3.75;3.08;;;;;;;5.35;71.25;97812.84;1798017;80;20975;-81
2021/11/10 04:34:58;;;;;;;5.35;3.22;;;;;;;5.41;71.54;97814.16;1798091;80;20971;-81
2021/11/10 04:37:24;;;;;;;5.42;4.55;;;;;;;5.46;71.33;97813.34;1798059;80;21306;-81
2021/11/10 04:39:50;;;;;;;4.17;3.02;;;;;;;5.47;71.40;97808.53;1797602;80;21007;-81
2021/11/10 04:42:16;;;;;;;3.33;2.45;;;;;;;5.48;71.15;97815.80;1771557;80;21338;-81
2021/11/10 04:44:44;;;;;;;4.03;2.83;;;;;;;5.49;70.37;97813.58;1797912;80;20995;-81
2021/11/10 04:47:10;;;;;;;3.80;2.98;;;;;;;5.56;71.16;97808.33;1798050;79;20960;-81
2021/11/10 04:49:35;;;;;;;3.65;3.22;;;;;;;5.55;70.98;97807.98;1797955;80;21002;-81
2021/11/10 04:52:01;;;;;;;2.98;2.67;;;;;;;5.52;71.17;97802.56;1798069;80;20924;-81
2021/11/10 04:54:30;;;;;;;3.92;3.05;;;;;;;5.46;71.00;97819.78;1798077;80;20924;-81
2021/11/10 04:56:58;;;;;;;4.55;3.40;;;;;;;5.49;70.12;97811.00;1797965;80;20987;-81
2021/11/10 04:59:24;;;;;;;3.98;3.52;;;;;;;5.58;69.33;97809.85;1797733;80;21039;-81
2021/11/10 05:04:37;;;;;;;4.70;2.80;;;;;;;5.67;70.18;97808.32;1797986;80;20987;-81
2021/11/10 05:07:03;;;;;;;3.40;2.70;;;;;;;5.64;70.00;97801.64;1797960;80;20959;-81
2021/11/10 05:09:29;;;;;;;3.35;2.40;;;;;;;5.58;70.87;97807.74;1798227;80;21321;-81
2021/11/10 05:11:55;;;;;;;2.37;2.17;;;;;;;5.49;69.98;97800.69;1797914;80;21011;-81
2021/11/10 05:14:21;;;;;;;3.20;2.75;;;;;;;5.43;69.57;97796.35;1798095;80;20995;-81
2021/11/10 05:16:47;;;;;;;3.95;2.52;;;;;;;5.45;70.25;97793.66;1798150;80;20967;-81
2021/11/10 05:19:13;;;;;;;4.15;2.80;;;;;;;5.40;70.09;97791.91;1797836;80;21002;-81
2021/11/10 05:21:39;;;;;;;4.05;2.80;;;;;;;5.36;69.84;97786.59;1813609;79;21360;-82
2021/11/10 05:24:05;;;;;;;3.77;2.60;;;;;;;5.38;68.30;97788.63;1771610;80;21043;-81
2021/11/10 05:26:31;;;;;;;3.55;2.52;;;;;;;5.51;69.19;97786.73;1797952;80;21057;-81
2021/11/10 05:28:57;;;;;;;2.87;2.17;;;;;;;5.60;68.76;97785.23;1797999;80;21042;-81
2021/11/10 05:31:23;;;;;;;3.10;2.47;;;;;;;5.65;68.74;97789.09;1798198;80;21278;-81
2021/11/10 05:33:48;;;;;;;5.47;3.83;;;;;;;5.72;68.43;97786.89;1797838;80;20963;-82
2021/11/10 05:36:14;;;;;;;3.30;2.25;;;;;;;5.76;68.67;97785.71;1798466;80;20975;-82
2021/11/10 05:38:40;;;;;;;2.30;2.02;;;;;;;5.79;67.07;97782.08;1798004;80;21389;-82
2021/11/10 05:41:06;;;;;;;2.98;2.60;;;;;;;5.84;67.51;97787.22;1797734;80;21095;-82
2021/11/10 05:43:32;;;;;;;4.17;3.45;;;;;;;5.87;67.81;97787.01;1798168;80;21418;-82
2021/11/10 05:45:58;;;;;;;3.60;3.15;;;;;;;5.89;67.82;97792.87;1798168;80;21046;-82
2021/11/10 05:48:25;;;;;;;3.67;3.12;;;;;;;5.85;68.12;97794.48;1798243;80;21019;-82
2021/11/10 05:50:51;;;;;;;5.17;2.83;;;;;;;5.82;68.17;97786.98;1798118;80;21090;-82
2021/11/10 05:53:17;;;;;;;5.83;4.62;;;;;;;5.76;68.07;97787.00;1798329;80;21067;-82
2021/11/10 05:55:43;;;;;;;6.65;4.65;;;;;;;5.70;67.90;97783.14;1798337;80;21365;-82
2021/11/10 05:58:09;;;;;;;3.33;2.95;;;;;;;5.61;67.50;97774.80;1797884;80;21133;-82
2021/11/10 06:00:36;;;;;;;7.12;4.50;;;;;;;5.59;67.81;97787.47;1771748;80;21090;-82
2021/11/10 06:03:02;;;;;;;6.92;4.72;;;;;;;5.53;68.08;97773.73;1798337;80;21341;-82
2021/11/10 06:05:27;;;;;;;6.35;4.20;;;;;;;5.41;68.82;97780.19;1798237;80;21019;-82
2021/11/10 06:07:55;;;;;;;4.35;3.55;;;;;;;5.32;69.63;97785.20;1798115;80;20971;-82
2021/11/10 06:10:21;;;;;;;4.67;3.60;;;;;;;5.29;68.84;97790.58;1798309;80;20936;-82
2021/11/10 06:12:47;;;;;;;6.85;4.45;;;;;;;5.28;69.48;97791.52;1771651;80;21382;-81
2021/11/10 06:15:13;;;;;;;5.72;4.60;;;;;;;5.23;69.68;97793.63;1798170;80;20955;-82
2021/11/10 06:17:39;;;;;;;6.97;4.90;;;;;;;5.18;69.38;97799.09;1798188;80;20983;-82
2021/11/10 06:20:06;;;;;;;5.40;3.20;;;;;;;5.19;69.15;97790.43;1798058;80;21322;-82
2021/11/10 06:22:32;;;;;;;4.12;3.47;;;;;;;5.27;69.05;97798.91;1798068;80;20970;-82
2021/11/10 06:24:58;;;;;;;3.92;3.20;;;;;;;5.34;69.21;97798.78;1798253;80;21365;-82
2021/11/10 06:27:24;;;;;;;4.00;2.75;;;;;;;5.39;69.01;97798.81;1798148;80;20955;-82
2021/11/10 06:29:50;;;;;;;3.10;2.80;;;;;;;5.42;68.97;97796.00;1798107;80;20967;-82
2021/11/10 06:32:16;;;;;;;3.90;3.20;;;;;;;5.43;69.25;97800.69;1798288;80;20983;-82
2021/11/10 06:34:42;;;;;;;4.00;2.72;;;;;;;5.42;69.16;97801.62;1771626;80;20947;-82
2021/11/10 06:37:08;;;;;;;4.22;2.98;;;;;;;5.40;69.69;97809.48;1798290;80;21338;-82
2021/11/10 06:39:34;;;;;;;3.65;2.80;;;;;;;5.36;68.96;97802.88;1797881;80;20974;-82
2021/11/10 06:42:00;;;;;;;4.80;3.10;;;;;;;5.38;68.84;97804.09;1798260;80;20970;-82
2021/11/10 06:44:25;;;;;;;3.47;2.75;;;;;;;5.43;68.46;97800.69;1798362;80;20991;-82
2021/11/10 06:46:51;;;;;;;8.13;5.45;;;;;;;5.52;69.14;97814.63;1798445;80;21425;-82
2021/11/10 06:49:18;;;;;;;8.78;6.65;;;;;;;5.49;69.52;97812.28;1798079;80;21046;-82
2021/11/10 06:51:44;;;;;;;7.03;4.58;;;;;;;5.42;69.27;97823.06;1798260;80;20928;-82
2021/11/10 06:54:10;;;;;;;4.47;3.50;;;;;;;5.37;69.69;97807.13;1798357;80;21385;-82
2021/11/10 06:56:36;;;;;;;10.53;6.12;;;;;;;5.32;69.55;97824.67;1798275;80;20999;-82
2021/11/10 06:59:03;;;;;;;5.78;4.05;;;;;;;5.30;69.32;97819.28;1795840;80;21027;-82
2021/11/10 07:01:29;;;;;;;3.25;2.77;;;;;;;5.24;70.15;97828.77;1810610;79;21011;-82
2021/11/10 07:03:55;;;;;;;4.33;2.87;;;;;;;5.13;69.77;97821.34;1795433;80;20939;-82
2021/11/10 07:06:20;;;;;;;3.17;2.22;;;;;;;5.13;69.98;97820.06;1795526;80;21325;-82
2021/11/10 07:08:46;;;;;;;2.45;2.10;;;;;;;5.14;69.99;97810.58;1795458;80;20956;-82
2021/11/10 07:11:12;;;;;;;2.70;2.27;;;;;;;5.16;70.47;97807.88;1795624;80;20983;-82
2021/11/10 07:13:37;;;;;;;2.60;2.40;;;;;;;5.15;69.81;97808.35;1810762;79;20955;-82
2021/11/10 07:16:04;;;;;;;5.65;3.87;;;;;;;5.20;69.56;97812.69;1795501;80;20987;-82
2021/11/10 07:18:30;;;;;;;2.95;2.62;;;;;;;5.27;69.37;97809.21;1795420;80;20967;-82
2021/11/10 07:20:55;;;;;;;2.05;1.85;;;;;;;5.32;69.23;97798.08;1795543;80;20936;-82
2021/11/10 07:23:21;;;;;;;2.72;1.75;;;;;;;5.33;70.31;97797.14;1795335;80;20947;-82
2021/11/10 07:25:47;;;;;;;3.22;2.92;;;;;;;5.30;70.36;97787.89;1795556;80;20944;-82
2021/11/10 07:28:13;;;;;;;11.30;8.48;;;;;;;5.28;70.12;97799.25;1795478;80;21027;-82
2021/11/10 07:30:40;;;;;;;8.85;7.22;;;;;;;5.28;69.40;97782.50;1766886;80;21011;-82
2021/11/10 07:33:08;;;;;;;4.45;3.50;;;;;;;5.28;69.66;97787.19;1795297;80;20971;-82
2021/11/10 07:35:34;;;;;;;6.67;5.17;;;;;;;5.23;70.24;97784.14;1795391;80;20991;-82
2021/11/10 07:38:00;;;;;;;3.77;2.15;;;;;;;5.16;70.50;97779.07;1795514;80;21412;-82
2021/11/10 07:40:26;;;;;;;5.30;3.95;;;;;;;5.09;70.78;97774.03;1795409;80;20955;-82
2021/11/10 07:42:52;;;;;;;4.05;3.65;;;;;;;5.05;70.56;97778.59;1795268;80;20976;-82
2021/11/10 07:45:30;;;;;;;3.98;2.87;;;;;;;5.04;70.69;97770.52;1795199;80;21030;-82
2021/11/10 07:47:52;;;;;;;5.12;3.67;;;;;;;5.07;70.88;97774.15;1796132;79;21026;-82
2021/11/10 07:50:21;;;;;;;5.47;4.90;;;;;;;5.09;70.70;97769.70;1795355;79;21380;-82
2021/11/10 07:52:47;;;;;;;10.82;8.68;;;;;;;5.11;70.29;97772.16;1795414;80;21402;-82
2021/11/10 07:55:13;;;;;;;7.70;6.40;;;;;;;5.15;70.15;97768.88;1795467;80;20951;-82
2021/11/10 07:57:39;;;;;;;5.55;4.03;;;;;;;5.18;70.55;97756.58;1795784;80;21038;-82
2021/11/10 08:00:10;;;;;;;5.58;3.67;;;;;;;5.19;70.71;97761.27;1798514;80;21389;-82
2021/11/10 08:02:35;;;;;;;5.60;4.35;;;;;;;5.14;71.07;97760.33;1798671;80;20986;-82
2021/11/10 08:05:01;;;;;;;4.58;3.52;;;;;;;5.10;70.63;97759.75;1798567;80;21318;-82
2021/11/10 08:07:27;;;;;;;7.90;5.00;;;;;;;5.08;71.49;97758.22;1798415;80;20928;-82
2021/11/10 08:09:52;;;;;;;5.87;3.92;;;;;;;5.03;70.56;97759.83;1798538;80;20963;-82
2021/11/10 08:12:18;;;;;;;2.90;2.25;;;;;;;5.14;71.73;97764.20;1798430;80;21355;-82
2021/11/10 08:14:44;;;;;;;3.12;2.05;;;;;;;5.15;71.86;97762.44;1798586;80;20979;-82
2021/11/10 08:17:09;;;;;;;5.15;3.30;;;;;;;5.13;71.59;97759.52;1798365;80;20920;-82
2021/11/10 08:19:35;;;;;;;4.10;2.90;;;;;;;5.17;71.24;97752.37;1798427;80;21341;-82
2021/11/10 08:22:01;;;;;;;3.80;1.95;;;;;;;5.29;70.31;97751.92;1798369;80;21003;-81
2021/11/10 08:24:29;;;;;;;4.42;2.02;;;;;;;5.39;71.03;97742.11;1798520;80;21014;-82
2021/11/10 08:26:55;;;;;;;3.45;2.35;;;;;;;5.55;68.94;97740.94;1798404;80;21461;-82
2021/11/10 08:29:22;;;;;;;2.22;2.00;;;;;;;5.82;68.98;97731.53;1798259;80;20979;-82
2021/11/10 08:31:50;;;;;;;2.70;2.10;;;;;;;5.97;69.52;97739.41;1798454;80;21054;-82
2021/11/10 08:34:15;;;;;;;1.75;1.65;;;;;;;6.20;67.21;97736.33;1798453;80;21365;-82
2021/11/10 08:36:41;;;;;;;2.08;1.60;;;;;;;6.53;66.47;97730.23;1798528;80;21010;-82
2021/11/10 08:39:07;;;;;;;2.70;2.10;;;;;;;6.79;66.80;97723.76;1798404;80;20994;-82
2021/11/10 08:41:34;;;;;;;2.30;1.80;;;;;;;7.01;66.66;97722.02;1797980;80;21066;-82
2021/11/10 08:44:00;;;;;;;1.92;1.70;;;;;;;7.20;60.83;97717.77;1798528;80;20955;-82
2021/11/10 08:46:26;;;;;;;1.92;1.72;;;;;;;7.40;63.79;97723.04;1798229;80;20943;-82
2021/11/10 08:48:54;;;;;;;1.80;1.50;;;;;;;7.49;64.80;97724.86;1798455;80;20971;-82
2021/11/10 08:51:21;;;;;;;2.83;1.50;;;;;;;7.60;64.00;97722.64;1773968;80;21062;-82
2021/11/10 08:53:48;;;;;;;1.55;1.45;;;;;;;7.72;63.59;97726.30;1798409;80;20967;-82
2021/11/10 08:56:13;;;;;;;2.27;1.70;;;;;;;7.83;60.79;97715.86;1798346;80;21022;-82
2021/11/10 08:58:39;;;;;;;2.37;1.75;;;;;;;7.99;59.57;97723.13;1798214;80;21002;-82
2021/11/10 09:01:05;;;;;;;1.65;1.50;;;;;;;8.10;62.27;97709.23;1798404;80;20928;-82
2021/11/10 09:03:31;;;;;;;2.80;1.85;;;;;;;8.20;61.89;97717.84;1798483;80;20991;-82
2021/11/10 09:05:57;;;;;;;1.95;1.50;;;;;;;8.31;59.15;97702.67;1798433;80;21050;-82
2021/11/10 09:08:25;;;;;;;2.15;1.75;;;;;;;8.38;58.63;97705.89;1798441;80;21002;-82
2021/11/10 09:10:51;;;;;;;3.50;1.77;;;;;;;8.50;60.09;97698.00;1798426;80;21105;-81
2021/11/10 09:13:16;;;;;;;2.47;1.80;;;;;;;8.59;60.80;97701.05;1798476;80;21043;-82
2021/11/10 09:15:42;;;;;;;2.17;1.60;;;;;;;8.66;60.16;97699.09;1798598;80;20964;-82
2021/11/10 09:18:08;;;;;;;2.55;1.70;;;;;;;8.75;60.13;97699.20;1798364;80;20966;-82
2021/11/10 09:20:35;;;;;;;2.62;1.60;;;;;;;8.86;58.95;97697.29;1798242;80;21083;-82
2021/11/10 09:23:02;;;;;;;2.37;1.50;;;;;;;8.96;59.02;97694.69;1774162;80;21405;-82
2021/11/10 09:25:29;;;;;;;2.85;2.00;;;;;;;9.06;58.62;97701.14;1798556;80;20944;-82
2021/11/10 09:27:55;;;;;;;2.00;1.67;;;;;;;9.17;58.96;97706.17;1798288;80;20994;-82
2021/11/10 09:30:21;;;;;;;1.98;1.65;;;;;;;9.24;59.45;97696.86;1798345;80;21045;-82
2021/11/10 09:32:48;;;;;;;2.02;1.55;;;;;;;9.31;59.03;97697.47;1798408;80;21389;-82
2021/11/10 09:35:14;;;;;;;1.85;1.60;;;;;;;9.41;57.84;97697.41;1798383;80;20999;-82
2021/11/10 09:37:40;;;;;;;2.15;1.57;;;;;;;9.48;57.71;97697.20;1798582;80;20959;-82
2021/11/10 09:40:09;;;;;;;2.08;1.40;;;;;;;9.59;58.37;97701.37;1798255;80;20923;-82
2021/11/10 09:42:36;;;;;;;2.50;1.37;;;;;;;9.68;57.23;97697.11;1797972;80;20980;-82
2021/11/10 09:45:06;;;;;;;2.52;1.40;;;;;;;9.75;56.97;97695.08;1798528;80;21038;-82
2021/11/10 09:47:33;;;;;;;2.02;1.40;;;;;;;9.85;57.12;97695.05;1798452;80;21345;-82
2021/11/10 09:49:59;;;;;;;7.62;5.60;;;;;;;9.92;58.04;97680.05;1798433;80;20971;-82
2021/11/10 09:52:25;;;;;;;3.25;2.00;;;;;;;9.98;56.83;97681.23;1798404;80;21372;-82
2021/11/10 09:54:51;;;;;;;3.05;1.98;;;;;;;10.06;57.10;97680.02;1798312;80;21327;-82
2021/11/10 09:57:18;;;;;;;2.62;2.10;;;;;;;10.14;57.36;97669.72;1798287;80;20920;-82
2021/11/10 09:59:43;;;;;;;3.70;3.40;;;;;;;10.24;56.04;97670.97;1797729;80;21082;-82
2021/11/10 10:02:12;;;;;;;2.35;1.60;;;;;;;10.33;57.05;97658.88;1798146;80;20959;-82
2021/11/10 10:04:42;;;;;;;2.55;1.57;;;;;;;10.39;55.78;97666.06;1798045;80;21259;-82
2021/11/10 10:07:08;;;;;;;2.10;1.92;;;;;;;10.45;55.06;97661.11;1798065;80;21070;-82
2021/11/10 10:09:36;;;;;;;2.37;1.60;;;;;;;10.53;54.94;97653.85;1798092;80;21386;-82
2021/11/10 10:12:02;;;;;;;1.70;1.30;;;;;;;10.59;55.56;97669.34;1798216;80;21027;-82
2021/11/10 10:14:27;;;;;;;2.30;1.50;;;;;;;10.64;55.96;97662.72;1798346;80;21035;-82
2021/11/10 10:16:53;;;;;;;2.42;1.50;;;;;;;10.70;54.24;97659.99;1798414;80;20992;-82
2021/11/10 10:19:19;;;;;;;2.65;1.50;;;;;;;10.78;54.92;97662.67;1798400;80;20991;-81
2021/11/10 10:21:45;;;;;;;2.02;1.32;;;;;;;10.85;53.55;97653.77;1798221;80;21002;-82
2021/11/10 10:24:14;;;;;;;2.00;1.40;;;;;;;10.89;53.38;97654.59;1771964;80;20971;-82
2021/11/10 10:26:41;;;;;;;2.22;1.32;;;;;;;10.93;53.99;97648.63;1798278;80;21369;-82
2021/11/10 10:29:09;;;;;;;1.98;1.50;;;;;;;10.98;53.07;97639.88;1798303;80;21003;-82
2021/11/10 10:31:37;;;;;;;2.52;1.30;;;;;;;11.04;53.22;97640.55;1798380;80;20998;-82
2021/11/10 10:34:09;;;;;;;2.30;1.60;;;;;;;11.09;52.77;97630.52;1798504;80;20978;-82
2021/11/10 10:36:38;;;;;;;4.08;1.70;;;;;;;11.13;51.72;97631.36;1798212;80;21050;-82
2021/11/10 10:39:17;;;;;;;2.58;1.72;;;;;;;11.16;53.35;97648.44;1798289;80;20964;-82
2021/11/10 10:41:51;;;;;;;2.95;1.50;;;;;;;11.17;50.34;97638.36;1774214;80;21015;-82
2021/11/10 10:44:20;;;;;;;1.82;1.50;;;;;;;11.23;52.80;97644.27;1798570;79;21011;-82
2021/11/10 10:46:49;;;;;;;2.92;1.75;;;;;;;11.26;52.96;97640.05;1798323;80;20979;-82
2021/11/10 10:49:30;;;;;;;2.70;2.00;;;;;;;11.27;52.95;97636.95;1772369;80;21010;-82
2021/11/10 10:51:52;;;;;;;3.65;2.12;;;;;;;11.28;52.55;97632.08;1798853;79;20976;-82
2021/11/10 10:54:21;;;;;;;4.00;2.05;;;;;;;11.30;51.36;97630.95;1798525;80;20987;-82
2021/11/10 10:56:59;;;;;;;2.30;1.50;;;;;;;11.32;52.23;97627.70;1812663;79;21070;-82
2021/11/10 10:59:26;;;;;;;1.32;1.20;;;;;;;11.34;51.75;97620.55;1798101;80;21456;-82
2021/11/10 11:01:58;;;;;;;1.70;1.20;;;;;;;11.39;52.38;97627.43;1798332;80;21433;-82
2021/11/10 11:04:29;;;;;;;3.02;1.50;;;;;;;11.40;50.80;97624.34;1798626;80;20987;-82
2021/11/10 11:07:03;;;;;;;3.05;2.10;;;;;;;11.45;50.52;97619.95;1798540;80;20967;-82
2021/11/10 11:09:34;;;;;;;2.98;2.25;;;;;;;11.51;51.40;97618.83;1798137;80;21077;-82
2021/11/10 11:12:20;;;;;;;2.05;1.47;;;;;;;11.58;50.99;97610.73;1796573;80;20966;-82
2021/11/10 11:15:02;;;;;;;2.67;1.80;;;;;;;11.62;51.09;97610.74;1798459;79;21410;-82
2021/11/10 11:17:33;;;;;;;2.50;1.57;;;;;;;11.59;50.92;97606.34;1798949;79;20967;-82
2021/11/10 11:20:07;;;;;;;2.05;1.65;;;;;;;11.57;51.37;97605.70;1797185;80;20983;-82
2021/11/10 11:22:38;;;;;;;1.80;1.22;;;;;;;11.60;50.38;97600.16;1798292;80;21051;-82
2021/11/10 11:25:27;;;;;;;3.42;1.62;;;;;;;11.65;51.01;97605.70;1798362;80;21087;-82
2021/11/10 11:27:59;;;;;;;1.47;0.95;;;;;;;11.74;49.98;97599.56;1798455;80;20967;-81
2021/11/10 11:30:34;;;;;;;1.37;1.00;;;;;;;11.78;49.07;97591.75;1798328;80;21432;-82
2021/11/10 11:33:03;;;;;;;1.80;1.20;;;;;;;11.79;49.59;97598.61;1798266;80;20963;-82
2021/11/10 11:35:37;;;;;;;1.42;1.17;;;;;;;11.85;49.00;97585.43;1798436;80;21006;-82
2021/11/10 11:38:10;;;;;;;2.20;1.40;;;;;;;11.89;49.68;97583.67;1798216;80;21031;-82
2021/11/10 11:40:40;;;;;;;1.80;1.05;;;;;;;11.93;48.12;97581.55;1798399;80;21019;-82